ADDS METAR Data INFO
IDs: Format: Raw Decoded Include TAF

Data at: 1249 UTC 19 Oct 2017

KVRB 191153Z AUTO 05010KT 10SM CLR 26/22 A3004 RMK AO2 SLP172 70004 T02560222 10256 20250 53013
KVRB 191053Z AUTO 06009KT 10SM FEW023 25/22 A3003 RMK AO2 SLP166 T02500217
KVRB 190953Z AUTO 05010KT 10SM CLR 25/22 A3002 RMK AO2 SLP163 T02500217
KVRB 190853Z AUTO 05012KT 10SM FEW024 25/22 A3001 RMK AO2 SLP160 T02500217 56012
KVRB 190753Z AUTO 06011KT 10SM FEW024 FEW030 25/22 A3001 RMK AO2 SLP162 T02500222
KVRB 190653Z AUTO 06010KT 10SM SCT023 BKN033 25/22 A3003 RMK AO2 SLP167 T02500222
KVRB 190553Z AUTO 06011G20KT 10SM FEW026 BKN045 BKN070 25/23 A3004 RMK AO2 RAB16E34 SLP172 P0001 60001 T02500228 10261 20239 58010
KVRB 190453Z 05012KT 10SM FEW021 FEW049 BKN080 26/22 A3006 RMK AO2 RAB13E23 SLP177 P0000 T02560222 402890233
KVRB 190353Z 03012KT 10SM FEW026 26/22 A3007 RMK AO2 SLP181 T02560217
KVRB 190330Z 04016G22KT 10SM FEW027 SCT034 26/22 A3007 RMK AO2 T02560217
KVRB 190321Z 04014KT 10SM BKN027 BKN035 26/22 A3007 RMK AO2 T02560217
KVRB 190253Z 04013KT 10SM SCT028 SCT038 26/21 A3007 RMK AO2 SLP182 T02560211 51006
KVRB 190153Z 04013KT 10SM FEW027 26/21 A3007 RMK AO2 SLP181 T02560211
KVRB 190053Z 05013G21KT 10SM FEW026 SCT034 26/21 A3007 RMK AO2 SLP183 T02560211
KVRB 182353Z 04011G21KT 10SM SCT026 BKN040 BKN055 26/22 A3005 RMK AO2 SLP176 60002 T02560217 10272 20239 53007
KVRB 182253Z 05011G20KT 10SM SCT027 BKN037 26/22 A3004 RMK AO2 SLP172 T02560217
KVRB 182153Z 05011KT 10SM SCT028 25/22 A3004 RMK AO2 PK WND 05027/2056 RAB2057E19 SLP170 P0002 T02500222
KVRB 182113Z 02014KT 6SM -RA BR FEW025 BKN041 OVC095 24/23 A3003 RMK AO2 PK WND 05027/2056 RAB2057 P0002 T02440228
KVRB 182059Z 04014G27KT 2 1/2SM +RA FEW023 SCT028 BKN037 25/21 A3003 RMK AO2 PK WND 05027/2056 RAB57 P0000 T02500211
KVRB 182053Z 06014G20KT 10SM FEW023 BKN028 27/22 A3003 RMK AO2 SLP168 60000 T02670217 56009
KVRB 182000Z AUTO 04012G18KT 10SM FEW026 SCT034 BKN090 27/23 A3004 RMK AO2 T02670233
KVRB 181953Z 04011KT 10SM BKN024 OVC055 26/23 A3004 RMK AO2 RAB01E10B41E50 SLP172 P0000 T02560228
KVRB 181853Z 05015G19KT 10SM BKN022 27/22 A3004 RMK AO2 SLP171 T02670222
KVRB 181753Z 05017G22KT 10SM BKN022 27/23 A3006 RMK AO2 RAE05 SLP177 P0000 60001 T02670228 10289 20239 58007
KVRB 181724Z 05013G23KT 10SM BKN022 26/23 A3007 RMK AO2 RAE05 P0000 T02560228
KVRB 181653Z 03014G27KT 5SM -RA SCT024 BKN036 26/22 A3007 RMK AO2 PK WND 03027/1648 RAB50 SLP182 P0001 T02610222
KVRB 181553Z 06016KT 10SM FEW020 BKN090 27/23 A3009 RMK AO2 SLP187 T02720228
KVRB 181453Z 08015G20KT 10SM FEW023 SCT028 SCT095 28/22 A3008 RMK AO2 SLP184 T02780217 50005
KVRB 181442Z 06017G23KT 10SM BKN023 OVC090 27/22 A3009 RMK AO2 T02670222
KVRB 181353Z 06014G20KT 10SM FEW019 SCT090 BKN120 27/21 A3008 RMK AO2 SLP183 T02670211
KVRB 181253Z 05013KT 10SM FEW016 26/22 A3006 RMK AO2 SLP180 T02560217
KVRB 181153Z 05011KT 10SM FEW017 24/21 A3005 RMK AO2 SLP174 70001 T02390211 10256 20233 51017
KVRB 181053Z AUTO 05012G19KT 10SM FEW027 24/21 A3004 RMK AO2 SLP170 T02390211
KVRB 181014Z AUTO 04016G25KT 10SM FEW012 SCT019 23/22 A3002 RMK AO2 T02330217
KVRB 180953Z AUTO 03012G24KT 10SM FEW012 BKN018 OVC042 24/22 A3001 RMK AO2 SLP162 T02440222
KVRB 180923Z AUTO 02015G23KT 10SM SCT015 BKN027 BKN037 25/22 A3001 RMK AO2 T02500222
KVRB 180853Z AUTO 04007KT 10SM FEW026 25/22 A3000 RMK AO2 SLP157 T02500217 58008
KVRB 180839Z AUTO 03007KT 10SM FEW023 SCT029 BKN065 26/22 A3000 RMK AO2 T02560217
KVRB 180831Z AUTO 03009KT 10SM SCT025 BKN029 BKN042 26/22 A3000 RMK AO2 T02560222
KVRB 180753Z AUTO 03006KT 10SM FEW024 25/22 A3000 RMK AO2 SLP157 T02500217
KVRB 180738Z AUTO 05005KT 10SM SCT024 SCT032 25/22 A3001 RMK AO2 T02500217
KVRB 180708Z AUTO 03005KT 10SM BKN027 25/22 A3002 RMK AO2 T02500217
KVRB 180653Z AUTO 04005KT 10SM SCT025 25/22 A3002 RMK AO2 SLP165 T02500217
KVRB 180648Z AUTO 06006KT 10SM SCT025 25/22 A3002 RMK AO2
KVRB 180640Z AUTO 04006KT 10SM BKN025 25/22 A3002 RMK AO2 T02500217
KVRB 180553Z 06008KT 10SM CLR 25/21 A3003 RMK AO2 SLP167 T02500211 10256 20244 56011
KVRB 180453Z 04007KT 10SM CLR 26/21 A3004 RMK AO2 SLP170 T02560206 402890222
KVRB 180353Z 07009KT 10SM CLR 26/22 A3004 RMK AO2 SLP171 T02560222
KVRB 180253Z 05009KT 10SM OVC080 25/22 A3006 RMK AO2 SLP178 T02500217 53017
KVRB 180153Z 04010KT 10SM FEW019 FEW050 SCT075 26/22 A3004 RMK AO2 SLP172 T02560222
KVRB 180053Z 03007KT 10SM CLR 24/21 A3003 RMK AO2 SLP167 T02440211